Pagina principală
METAR-TAF:

METAR-TAF

Aeroporturi :

Seward, Alaska, Statele Unite ale Americii

Latitudine: 60-07N, longitudine: 149-27W, elevație: 9 m

Observații meteo curente

Raportul a fost făcut în urmă cu 1 oră și 12 de minute, la 04:53 UTC
Vânt calm
Temperatură -3°C
Umiditate 80%
Presiune 1014 hPa
Vizibilitate: 16.1 km
Nori împrăștiați la o înălțime de 7500 picior

METAR: PAWD 240453Z AUTO 00000KT 10SM SCT075 M03/M06 A2993 RMK AO2 SLP134 T10281061 TSNO

Ora: 21:05 (06:05 UTC)


TAF: lipsă

Observații și prognoze meteo pentru peste 4.000 de aeroporturi (rapoarte METAR și TAF).

Stațiile disponibile sunt reprezentate pe hartă prin puncte galbene și roșii.

Țineți indicatorul mouse-ului pe punctul dorit pentru a vedea denumirea stației.

Apoi, faceți clic pentru a vedea observațiile și prognozele meteorologice.

Pentru a schimba harta: Pentru mărire, faceți clic pe butoanele verzi cu cruce neagră; pentru micșorare, pe butonul verde cu o liniuță; pentru hărți învecinate, pe săgețile verzi.


METAR-TAF: